sensor_id;sensor_type;location;lat;lon;timestamp;P1;durP1;ratioP1;P2;durP2;ratioP2
21827;SDS011;11076;47.942;11.804;2023-08-06T00:02:10;6.93;;;5.03;;
21827;SDS011;11076;47.942;11.804;2023-08-06T00:07:12;5.82;;;5.15;;
21827;SDS011;11076;47.942;11.804;2023-08-06T00:12:15;5.45;;;4.38;;
21827;SDS011;11076;47.942;11.804;2023-08-06T00:17:17;5.43;;;4.82;;
21827;SDS011;11076;47.942;11.804;2023-08-06T00:22:20;9.75;;;4.47;;
21827;SDS011;11076;47.942;11.804;2023-08-06T00:27:22;12.05;;;3.97;;
21827;SDS011;11076;47.942;11.804;2023-08-06T00:32:25;5.63;;;5.03;;
21827;SDS011;11076;47.942;11.804;2023-08-06T00:37:27;5.70;;;4.28;;
21827;SDS011;11076;47.942;11.804;2023-08-06T00:42:30;6.80;;;3.40;;
21827;SDS011;11076;47.942;11.804;2023-08-06T00:47:32;4.10;;;3.80;;
21827;SDS011;11076;47.942;11.804;2023-08-06T00:52:35;8.13;;;3.95;;
21827;SDS011;11076;47.942;11.804;2023-08-06T00:57:39;4.07;;;3.67;;
21827;SDS011;11076;47.942;11.804;2023-08-06T01:02:42;7.38;;;4.68;;
21827;SDS011;11076;47.942;11.804;2023-08-06T01:18:31;4.72;;;4.05;;
21827;SDS011;11076;47.942;11.804;2023-08-06T01:23:35;6.85;;;4.65;;
21827;SDS011;11076;47.942;11.804;2023-08-06T01:28:46;4.72;;;4.25;;
21827;SDS011;11076;47.942;11.804;2023-08-06T01:33:54;5.25;;;4.07;;
21827;SDS011;11076;47.942;11.804;2023-08-06T01:39:00;5.00;;;4.05;;
21827;SDS011;11076;47.942;11.804;2023-08-06T01:44:02;7.20;;;3.90;;
21827;SDS011;11076;47.942;11.804;2023-08-06T01:49:06;4.55;;;3.53;;
21827;SDS011;11076;47.942;11.804;2023-08-06T01:54:08;4.20;;;3.80;;
21827;SDS011;11076;47.942;11.804;2023-08-06T01:59:12;3.60;;;3.30;;
21827;SDS011;11076;47.942;11.804;2023-08-06T02:04:15;5.07;;;3.28;;
21827;SDS011;11076;47.942;11.804;2023-08-06T02:09:18;4.82;;;3.22;;
21827;SDS011;11076;47.942;11.804;2023-08-06T02:14:20;3.85;;;2.95;;
21827;SDS011;11076;47.942;11.804;2023-08-06T02:19:22;3.45;;;3.15;;
21827;SDS011;11076;47.942;11.804;2023-08-06T02:24:25;6.13;;;2.65;;
21827;SDS011;11076;47.942;11.804;2023-08-06T02:29:27;6.88;;;3.40;;
21827;SDS011;11076;47.942;11.804;2023-08-06T02:34:30;3.60;;;2.90;;
21827;SDS011;11076;47.942;11.804;2023-08-06T02:39:32;4.07;;;2.75;;
21827;SDS011;11076;47.942;11.804;2023-08-06T02:44:35;4.00;;;2.92;;
21827;SDS011;11076;47.942;11.804;2023-08-06T02:49:39;2.97;;;2.42;;
21827;SDS011;11076;47.942;11.804;2023-08-06T02:54:42;3.38;;;2.50;;
21827;SDS011;11076;47.942;11.804;2023-08-06T02:59:46;2.60;;;2.40;;
21827;SDS011;11076;47.942;11.804;2023-08-06T03:04:52;4.80;;;2.60;;
21827;SDS011;11076;47.942;11.804;2023-08-06T03:09:58;2.05;;;1.80;;
21827;SDS011;11076;47.942;11.804;2023-08-06T03:15:00;1.70;;;1.60;;
21827;SDS011;11076;47.942;11.804;2023-08-06T03:20:03;4.78;;;2.20;;
21827;SDS011;11076;47.942;11.804;2023-08-06T03:25:07;2.65;;;1.90;;
21827;SDS011;11076;47.942;11.804;2023-08-06T03:30:11;4.60;;;2.85;;
21827;SDS011;11076;47.942;11.804;2023-08-06T03:35:14;3.63;;;2.20;;
21827;SDS011;11076;47.942;11.804;2023-08-06T03:40:17;3.17;;;2.25;;
21827;SDS011;11076;47.942;11.804;2023-08-06T03:45:21;4.40;;;2.47;;
21827;SDS011;11076;47.942;11.804;2023-08-06T03:50:23;4.68;;;2.50;;
21827;SDS011;11076;47.942;11.804;2023-08-06T03:55:26;2.80;;;2.00;;
21827;SDS011;11076;47.942;11.804;2023-08-06T04:00:28;1.83;;;1.73;;
21827;SDS011;11076;47.942;11.804;2023-08-06T04:05:31;4.03;;;2.22;;
21827;SDS011;11076;47.942;11.804;2023-08-06T04:10:34;6.72;;;2.30;;
21827;SDS011;11076;47.942;11.804;2023-08-06T04:15:37;2.55;;;2.33;;
21827;SDS011;11076;47.942;11.804;2023-08-06T04:20:43;1.52;;;1.40;;
21827;SDS011;11076;47.942;11.804;2023-08-06T04:25:47;2.30;;;2.10;;
21827;SDS011;11076;47.942;11.804;2023-08-06T04:30:50;2.20;;;1.60;;
21827;SDS011;11076;47.942;11.804;2023-08-06T04:35:55;1.42;;;1.33;;
21827;SDS011;11076;47.942;11.804;2023-08-06T04:41:01;1.75;;;1.65;;
21827;SDS011;11076;47.942;11.804;2023-08-06T04:46:05;1.75;;;1.65;;
21827;SDS011;11076;47.942;11.804;2023-08-06T04:51:07;2.40;;;1.70;;
21827;SDS011;11076;47.942;11.804;2023-08-06T04:56:10;2.63;;;2.00;;
21827;SDS011;11076;47.942;11.804;2023-08-06T05:01:12;3.35;;;1.80;;
21827;SDS011;11076;47.942;11.804;2023-08-06T05:06:14;1.73;;;1.60;;
21827;SDS011;11076;47.942;11.804;2023-08-06T05:11:17;1.90;;;1.80;;
21827;SDS011;11076;47.942;11.804;2023-08-06T05:16:19;7.75;;;1.88;;
21827;SDS011;11076;47.942;11.804;2023-08-06T05:21:22;1.55;;;1.33;;
21827;SDS011;11076;47.942;11.804;2023-08-06T05:26:24;1.38;;;1.30;;
21827;SDS011;11076;47.942;11.804;2023-08-06T05:31:26;1.55;;;1.30;;
21827;SDS011;11076;47.942;11.804;2023-08-06T05:36:30;1.83;;;1.30;;
21827;SDS011;11076;47.942;11.804;2023-08-06T05:41:33;6.65;;;1.60;;
21827;SDS011;11076;47.942;11.804;2023-08-06T05:46:35;1.63;;;1.52;;
21827;SDS011;11076;47.942;11.804;2023-08-06T05:51:38;1.77;;;1.50;;
21827;SDS011;11076;47.942;11.804;2023-08-06T05:56:40;2.10;;;1.35;;
21827;SDS011;11076;47.942;11.804;2023-08-06T06:01:42;1.98;;;1.77;;
21827;SDS011;11076;47.942;11.804;2023-08-06T06:06:45;3.95;;;1.48;;
21827;SDS011;11076;47.942;11.804;2023-08-06T06:11:47;1.27;;;1.10;;
21827;SDS011;11076;47.942;11.804;2023-08-06T06:16:51;3.25;;;1.40;;
21827;SDS011;11076;47.942;11.804;2023-08-06T06:21:55;1.30;;;1.20;;
21827;SDS011;11076;47.942;11.804;2023-08-06T06:27:00;3.22;;;1.58;;
21827;SDS011;11076;47.942;11.804;2023-08-06T06:32:03;1.55;;;1.45;;
21827;SDS011;11076;47.942;11.804;2023-08-06T06:37:06;1.40;;;1.30;;
21827;SDS011;11076;47.942;11.804;2023-08-06T06:42:08;1.45;;;1.30;;
21827;SDS011;11076;47.942;11.804;2023-08-06T06:47:16;1.00;;;1.00;;
21827;SDS011;11076;47.942;11.804;2023-08-06T06:52:19;1.00;;;1.00;;
21827;SDS011;11076;47.942;11.804;2023-08-06T06:57:21;3.08;;;1.20;;
21827;SDS011;11076;47.942;11.804;2023-08-06T07:02:23;2.40;;;1.27;;
21827;SDS011;11076;47.942;11.804;2023-08-06T07:07:26;1.40;;;1.30;;
21827;SDS011;11076;47.942;11.804;2023-08-06T07:12:28;1.35;;;1.15;;
21827;SDS011;11076;47.942;11.804;2023-08-06T07:17:31;7.97;;;1.52;;
21827;SDS011;11076;47.942;11.804;2023-08-06T07:22:33;1.15;;;0.98;;
21827;SDS011;11076;47.942;11.804;2023-08-06T07:27:35;1.25;;;1.08;;
21827;SDS011;11076;47.942;11.804;2023-08-06T07:32:38;2.35;;;1.40;;
21827;SDS011;11076;47.942;11.804;2023-08-06T07:37:40;1.85;;;1.27;;
21827;SDS011;11076;47.942;11.804;2023-08-06T07:42:43;0.82;;;0.82;;
21827;SDS011;11076;47.942;11.804;2023-08-06T07:47:45;4.22;;;0.93;;
21827;SDS011;11076;47.942;11.804;2023-08-06T07:52:48;3.58;;;1.50;;
21827;SDS011;11076;47.942;11.804;2023-08-06T07:57:50;1.77;;;1.05;;
21827;SDS011;11076;47.942;11.804;2023-08-06T08:02:52;1.23;;;1.00;;
21827;SDS011;11076;47.942;11.804;2023-08-06T08:07:55;1.52;;;1.15;;
21827;SDS011;11076;47.942;11.804;2023-08-06T08:12:57;4.55;;;1.80;;
21827;SDS011;11076;47.942;11.804;2023-08-06T08:18:00;1.98;;;1.45;;
21827;SDS011;11076;47.942;11.804;2023-08-06T08:23:02;3.47;;;1.50;;
21827;SDS011;11076;47.942;11.804;2023-08-06T08:28:05;1.45;;;0.77;;
21827;SDS011;11076;47.942;11.804;2023-08-06T08:33:07;1.27;;;1.00;;
21827;SDS011;11076;47.942;11.804;2023-08-06T08:38:10;2.50;;;0.80;;
21827;SDS011;11076;47.942;11.804;2023-08-06T08:43:12;4.43;;;0.88;;
21827;SDS011;11076;47.942;11.804;2023-08-06T08:48:17;1.10;;;0.60;;
21827;SDS011;11076;47.942;11.804;2023-08-06T08:53:21;1.85;;;0.60;;
21827;SDS011;11076;47.942;11.804;2023-08-06T08:58:24;4.80;;;0.80;;
21827;SDS011;11076;47.942;11.804;2023-08-06T09:03:27;3.63;;;0.70;;
21827;SDS011;11076;47.942;11.804;2023-08-06T09:08:31;2.20;;;0.70;;
21827;SDS011;11076;47.942;11.804;2023-08-06T09:13:38;0.95;;;0.60;;
21827;SDS011;11076;47.942;11.804;2023-08-06T09:18:41;0.30;;;0.30;;
21827;SDS011;11076;47.942;11.804;2023-08-06T09:23:43;0.98;;;0.65;;
21827;SDS011;11076;47.942;11.804;2023-08-06T09:28:46;3.00;;;0.63;;
21827;SDS011;11076;47.942;11.804;2023-08-06T09:33:49;0.45;;;0.40;;
21827;SDS011;11076;47.942;11.804;2023-08-06T09:38:52;1.02;;;0.40;;
21827;SDS011;11076;47.942;11.804;2023-08-06T09:43:54;0.68;;;0.40;;
21827;SDS011;11076;47.942;11.804;2023-08-06T09:48:56;0.50;;;0.50;;
21827;SDS011;11076;47.942;11.804;2023-08-06T09:53:59;0.75;;;0.50;;
21827;SDS011;11076;47.942;11.804;2023-08-06T09:59:06;0.57;;;0.40;;
21827;SDS011;11076;47.942;11.804;2023-08-06T10:04:08;0.60;;;0.60;;
21827;SDS011;11076;47.942;11.804;2023-08-06T10:09:18;0.63;;;0.40;;
21827;SDS011;11076;47.942;11.804;2023-08-06T10:20:16;0.35;;;0.35;;
21827;SDS011;11076;47.942;11.804;2023-08-06T10:25:19;0.47;;;0.40;;
21827;SDS011;11076;47.942;11.804;2023-08-06T10:30:28;2.58;;;0.50;;
21827;SDS011;11076;47.942;11.804;2023-08-06T10:35:46;2.72;;;0.40;;
21827;SDS011;11076;47.942;11.804;2023-08-06T10:45:55;0.95;;;0.30;;
21827;SDS011;11076;47.942;11.804;2023-08-06T10:51:00;0.30;;;0.30;;
21827;SDS011;11076;47.942;11.804;2023-08-06T10:56:13;0.98;;;0.40;;
21827;SDS011;11076;47.942;11.804;2023-08-06T11:01:24;0.30;;;0.30;;
21827;SDS011;11076;47.942;11.804;2023-08-06T11:06:26;0.40;;;0.40;;
21827;SDS011;11076;47.942;11.804;2023-08-06T11:11:30;0.68;;;0.50;;
21827;SDS011;11076;47.942;11.804;2023-08-06T11:16:32;0.50;;;0.50;;
21827;SDS011;11076;47.942;11.804;2023-08-06T11:21:35;0.70;;;0.40;;
21827;SDS011;11076;47.942;11.804;2023-08-06T11:26:37;2.63;;;0.40;;
21827;SDS011;11076;47.942;11.804;2023-08-06T11:31:42;0.40;;;0.30;;
21827;SDS011;11076;47.942;11.804;2023-08-06T11:36:44;0.30;;;0.30;;
21827;SDS011;11076;47.942;11.804;2023-08-06T11:41:47;0.30;;;0.30;;
21827;SDS011;11076;47.942;11.804;2023-08-06T11:46:51;1.15;;;0.38;;
21827;SDS011;11076;47.942;11.804;2023-08-06T11:51:54;1.10;;;0.20;;
21827;SDS011;11076;47.942;11.804;2023-08-06T11:56:57;4.70;;;0.40;;
21827;SDS011;11076;47.942;11.804;2023-08-06T12:02:01;0.55;;;0.52;;
21827;SDS011;11076;47.942;11.804;2023-08-06T12:07:05;1.42;;;0.30;;
21827;SDS011;11076;47.942;11.804;2023-08-06T12:12:09;0.30;;;0.30;;
21827;SDS011;11076;47.942;11.804;2023-08-06T12:17:12;0.30;;;0.30;;
21827;SDS011;11076;47.942;11.804;2023-08-06T12:22:14;0.30;;;0.30;;
21827;SDS011;11076;47.942;11.804;2023-08-06T12:27:17;2.00;;;0.32;;
21827;SDS011;11076;47.942;11.804;2023-08-06T12:32:20;0.20;;;0.20;;
21827;SDS011;11076;47.942;11.804;2023-08-06T12:37:23;0.45;;;0.30;;
21827;SDS011;11076;47.942;11.804;2023-08-06T12:42:27;0.88;;;0.20;;
21827;SDS011;11076;47.942;11.804;2023-08-06T12:47:29;0.20;;;0.20;;
21827;SDS011;11076;47.942;11.804;2023-08-06T12:52:31;0.38;;;0.38;;
21827;SDS011;11076;47.942;11.804;2023-08-06T12:57:34;1.35;;;0.30;;
21827;SDS011;11076;47.942;11.804;2023-08-06T13:02:44;0.43;;;0.30;;
21827;SDS011;11076;47.942;11.804;2023-08-06T13:07:46;0.20;;;0.20;;
21827;SDS011;11076;47.942;11.804;2023-08-06T13:12:49;0.20;;;0.20;;
21827;SDS011;11076;47.942;11.804;2023-08-06T13:17:51;0.30;;;0.30;;
21827;SDS011;11076;47.942;11.804;2023-08-06T13:22:54;2.20;;;0.32;;
21827;SDS011;11076;47.942;11.804;2023-08-06T13:27:56;1.23;;;0.30;;
21827;SDS011;11076;47.942;11.804;2023-08-06T13:32:59;0.68;;;0.45;;
21827;SDS011;11076;47.942;11.804;2023-08-06T13:38:01;1.02;;;0.40;;
21827;SDS011;11076;47.942;11.804;2023-08-06T13:43:07;2.63;;;0.30;;
21827;SDS011;11076;47.942;11.804;2023-08-06T13:48:10;0.30;;;0.30;;
21827;SDS011;11076;47.942;11.804;2023-08-06T13:53:12;0.30;;;0.30;;
21827;SDS011;11076;47.942;11.804;2023-08-06T13:58:14;0.35;;;0.35;;
21827;SDS011;11076;47.942;11.804;2023-08-06T14:03:17;0.65;;;0.30;;
21827;SDS011;11076;47.942;11.804;2023-08-06T14:08:19;0.85;;;0.32;;
21827;SDS011;11076;47.942;11.804;2023-08-06T14:13:22;0.30;;;0.30;;
21827;SDS011;11076;47.942;11.804;2023-08-06T14:18:24;0.30;;;0.30;;
21827;SDS011;11076;47.942;11.804;2023-08-06T14:23:27;0.55;;;0.30;;
21827;SDS011;11076;47.942;11.804;2023-08-06T14:28:29;0.47;;;0.35;;
21827;SDS011;11076;47.942;11.804;2023-08-06T14:33:32;0.32;;;0.30;;
21827;SDS011;11076;47.942;11.804;2023-08-06T14:38:35;0.38;;;0.38;;
21827;SDS011;11076;47.942;11.804;2023-08-06T14:43:41;1.20;;;0.30;;
21827;SDS011;11076;47.942;11.804;2023-08-06T14:48:44;0.40;;;0.40;;
21827;SDS011;11076;47.942;11.804;2023-08-06T14:53:46;0.38;;;0.30;;
21827;SDS011;11076;47.942;11.804;2023-08-06T14:58:48;0.20;;;0.20;;
21827;SDS011;11076;47.942;11.804;2023-08-06T15:03:51;0.75;;;0.38;;
21827;SDS011;11076;47.942;11.804;2023-08-06T15:08:53;0.38;;;0.30;;
21827;SDS011;11076;47.942;11.804;2023-08-06T15:14:00;0.50;;;0.50;;
21827;SDS011;11076;47.942;11.804;2023-08-06T15:19:02;1.58;;;0.40;;
21827;SDS011;11076;47.942;11.804;2023-08-06T15:24:05;0.55;;;0.30;;
21827;SDS011;11076;47.942;11.804;2023-08-06T15:29:07;0.55;;;0.45;;
21827;SDS011;11076;47.942;11.804;2023-08-06T15:34:10;0.30;;;0.30;;
21827;SDS011;11076;47.942;11.804;2023-08-06T15:39:12;0.73;;;0.32;;
21827;SDS011;11076;47.942;11.804;2023-08-06T15:44:15;1.05;;;0.70;;
21827;SDS011;11076;47.942;11.804;2023-08-06T15:49:17;0.32;;;0.32;;
21827;SDS011;11076;47.942;11.804;2023-08-06T15:54:20;0.40;;;0.38;;
21827;SDS011;11076;47.942;11.804;2023-08-06T15:59:23;2.63;;;0.40;;
21827;SDS011;11076;47.942;11.804;2023-08-06T16:04:33;0.55;;;0.30;;
21827;SDS011;11076;47.942;11.804;2023-08-06T16:09:35;0.57;;;0.40;;
21827;SDS011;11076;47.942;11.804;2023-08-06T16:14:38;0.47;;;0.47;;
21827;SDS011;11076;47.942;11.804;2023-08-06T16:19:43;0.40;;;0.40;;
21827;SDS011;11076;47.942;11.804;2023-08-06T16:24:46;0.50;;;0.30;;
21827;SDS011;11076;47.942;11.804;2023-08-06T16:29:50;0.30;;;0.30;;
21827;SDS011;11076;47.942;11.804;2023-08-06T16:34:53;0.30;;;0.30;;
21827;SDS011;11076;47.942;11.804;2023-08-06T16:39:55;0.40;;;0.40;;
21827;SDS011;11076;47.942;11.804;2023-08-06T16:44:58;0.40;;;0.40;;
21827;SDS011;11076;47.942;11.804;2023-08-06T16:50:00;0.47;;;0.40;;
21827;SDS011;11076;47.942;11.804;2023-08-06T16:55:03;0.38;;;0.30;;
21827;SDS011;11076;47.942;11.804;2023-08-06T17:00:05;0.85;;;0.30;;
21827;SDS011;11076;47.942;11.804;2023-08-06T17:05:09;1.60;;;0.60;;
21827;SDS011;11076;47.942;11.804;2023-08-06T17:10:11;0.63;;;0.40;;
21827;SDS011;11076;47.942;11.804;2023-08-06T17:15:14;0.40;;;0.40;;
21827;SDS011;11076;47.942;11.804;2023-08-06T17:20:16;1.40;;;0.50;;
21827;SDS011;11076;47.942;11.804;2023-08-06T17:25:19;1.65;;;0.50;;
21827;SDS011;11076;47.942;11.804;2023-08-06T17:30:24;0.70;;;0.70;;
21827;SDS011;11076;47.942;11.804;2023-08-06T17:35:26;1.05;;;0.95;;
21827;SDS011;11076;47.942;11.804;2023-08-06T17:40:31;0.95;;;0.77;;
21827;SDS011;11076;47.942;11.804;2023-08-06T17:45:34;0.57;;;0.52;;
21827;SDS011;11076;47.942;11.804;2023-08-06T17:50:36;0.50;;;0.50;;
21827;SDS011;11076;47.942;11.804;2023-08-06T17:55:39;4.25;;;1.02;;
21827;SDS011;11076;47.942;11.804;2023-08-06T18:00:41;2.10;;;0.50;;
21827;SDS011;11076;47.942;11.804;2023-08-06T18:05:46;0.32;;;0.32;;
21827;SDS011;11076;47.942;11.804;2023-08-06T18:10:48;0.70;;;0.70;;
21827;SDS011;11076;47.942;11.804;2023-08-06T18:15:51;0.70;;;0.70;;
21827;SDS011;11076;47.942;11.804;2023-08-06T18:20:55;1.10;;;0.75;;
21827;SDS011;11076;47.942;11.804;2023-08-06T18:25:58;1.05;;;0.77;;
21827;SDS011;11076;47.942;11.804;2023-08-06T18:31:01;1.27;;;0.70;;
21827;SDS011;11076;47.942;11.804;2023-08-06T18:36:03;1.33;;;0.70;;
21827;SDS011;11076;47.942;11.804;2023-08-06T18:41:06;0.75;;;0.75;;
21827;SDS011;11076;47.942;11.804;2023-08-06T18:46:08;2.20;;;0.90;;
21827;SDS011;11076;47.942;11.804;2023-08-06T18:51:11;0.70;;;0.70;;
21827;SDS011;11076;47.942;11.804;2023-08-06T18:56:13;0.60;;;0.60;;
21827;SDS011;11076;47.942;11.804;2023-08-06T19:01:16;0.75;;;0.65;;
21827;SDS011;11076;47.942;11.804;2023-08-06T19:06:18;0.63;;;0.50;;
21827;SDS011;11076;47.942;11.804;2023-08-06T19:11:20;1.20;;;0.60;;
21827;SDS011;11076;47.942;11.804;2023-08-06T19:16:23;0.73;;;0.70;;
21827;SDS011;11076;47.942;11.804;2023-08-06T19:21:26;1.40;;;0.75;;
21827;SDS011;11076;47.942;11.804;2023-08-06T19:26:29;2.60;;;0.70;;
21827;SDS011;11076;47.942;11.804;2023-08-06T19:31:31;2.20;;;0.95;;
21827;SDS011;11076;47.942;11.804;2023-08-06T19:36:33;0.77;;;0.77;;
21827;SDS011;11076;47.942;11.804;2023-08-06T19:41:36;0.70;;;0.70;;
21827;SDS011;11076;47.942;11.804;2023-08-06T19:46:38;1.23;;;0.90;;
21827;SDS011;11076;47.942;11.804;2023-08-06T19:51:41;0.82;;;0.82;;
21827;SDS011;11076;47.942;11.804;2023-08-06T19:56:43;0.95;;;0.88;;
21827;SDS011;11076;47.942;11.804;2023-08-06T20:01:46;1.20;;;1.10;;
21827;SDS011;11076;47.942;11.804;2023-08-06T20:06:52;0.55;;;0.52;;
21827;SDS011;11076;47.942;11.804;2023-08-06T20:11:55;0.60;;;0.60;;
21827;SDS011;11076;47.942;11.804;2023-08-06T20:16:58;1.40;;;0.60;;
21827;SDS011;11076;47.942;11.804;2023-08-06T20:22:00;2.25;;;1.70;;
21827;SDS011;11076;47.942;11.804;2023-08-06T20:27:03;4.40;;;2.67;;
21827;SDS011;11076;47.942;11.804;2023-08-06T20:32:06;2.88;;;2.47;;
21827;SDS011;11076;47.942;11.804;2023-08-06T20:37:08;1.77;;;1.67;;
21827;SDS011;11076;47.942;11.804;2023-08-06T20:42:11;1.25;;;1.13;;
21827;SDS011;11076;47.942;11.804;2023-08-06T20:47:13;0.80;;;0.77;;
21827;SDS011;11076;47.942;11.804;2023-08-06T20:52:16;0.75;;;0.70;;
21827;SDS011;11076;47.942;11.804;2023-08-06T20:57:18;2.58;;;1.25;;
21827;SDS011;11076;47.942;11.804;2023-08-06T21:02:21;1.13;;;1.10;;
21827;SDS011;11076;47.942;11.804;2023-08-06T21:07:24;3.00;;;0.90;;
21827;SDS011;11076;47.942;11.804;2023-08-06T21:12:26;6.30;;;0.80;;
21827;SDS011;11076;47.942;11.804;2023-08-06T21:17:28;7.97;;;1.10;;
21827;SDS011;11076;47.942;11.804;2023-08-06T21:22:31;0.85;;;0.60;;
21827;SDS011;11076;47.942;11.804;2023-08-06T21:27:33;4.10;;;1.45;;
21827;SDS011;11076;47.942;11.804;2023-08-06T21:32:36;1.25;;;0.90;;
21827;SDS011;11076;47.942;11.804;2023-08-06T21:37:38;2.42;;;1.00;;
21827;SDS011;11076;47.942;11.804;2023-08-06T21:42:42;1.35;;;1.05;;
21827;SDS011;11076;47.942;11.804;2023-08-06T21:47:46;1.50;;;0.70;;
21827;SDS011;11076;47.942;11.804;2023-08-06T21:52:48;1.00;;;1.00;;
21827;SDS011;11076;47.942;11.804;2023-08-06T21:57:51;0.80;;;0.80;;
21827;SDS011;11076;47.942;11.804;2023-08-06T22:02:54;0.82;;;0.80;;
21827;SDS011;11076;47.942;11.804;2023-08-06T22:07:56;3.78;;;1.05;;
21827;SDS011;11076;47.942;11.804;2023-08-06T22:12:58;1.70;;;0.50;;
21827;SDS011;11076;47.942;11.804;2023-08-06T22:18:01;0.73;;;0.70;;
21827;SDS011;11076;47.942;11.804;2023-08-06T22:23:03;2.03;;;1.00;;
21827;SDS011;11076;47.942;11.804;2023-08-06T22:28:06;4.53;;;0.80;;
21827;SDS011;11076;47.942;11.804;2023-08-06T22:33:09;1.75;;;0.73;;
21827;SDS011;11076;47.942;11.804;2023-08-06T22:38:12;1.63;;;1.00;;
21827;SDS011;11076;47.942;11.804;2023-08-06T22:43:14;3.38;;;0.70;;
21827;SDS011;11076;47.942;11.804;2023-08-06T22:48:16;2.05;;;1.10;;
21827;SDS011;11076;47.942;11.804;2023-08-06T22:53:19;1.92;;;0.98;;
21827;SDS011;11076;47.942;11.804;2023-08-06T22:58:21;0.77;;;0.77;;
21827;SDS011;11076;47.942;11.804;2023-08-06T23:03:23;1.10;;;1.00;;
21827;SDS011;11076;47.942;11.804;2023-08-06T23:08:26;2.47;;;1.10;;
21827;SDS011;11076;47.942;11.804;2023-08-06T23:13:28;1.00;;;0.82;;
21827;SDS011;11076;47.942;11.804;2023-08-06T23:18:31;2.13;;;1.00;;
21827;SDS011;11076;47.942;11.804;2023-08-06T23:23:33;0.80;;;0.80;;
21827;SDS011;11076;47.942;11.804;2023-08-06T23:28:35;0.98;;;0.98;;
21827;SDS011;11076;47.942;11.804;2023-08-06T23:33:39;2.38;;;1.10;;
21827;SDS011;11076;47.942;11.804;2023-08-06T23:38:41;1.08;;;0.93;;
21827;SDS011;11076;47.942;11.804;2023-08-06T23:43:44;2.58;;;0.95;;
21827;SDS011;11076;47.942;11.804;2023-08-06T23:48:47;0.93;;;0.93;;
21827;SDS011;11076;47.942;11.804;2023-08-06T23:53:49;2.15;;;1.00;;
21827;SDS011;11076;47.942;11.804;2023-08-06T23:58:52;1.10;;;1.00;;
